Time;durP1;ratioP1;P1;durP2;ratioP2;P2;SDS_P1;SDS_P2;PMS_P1;PMS_P2;Temp;Humidity;BMP_temperature;BMP_pressure;BME280_temperature;BME280_humidity;BME280_pressure;Samples;Min_cycle;Max_cycle;Signal;HPM_P1;HPM_P2
2023/07/11 00:00:14;;;;;;;;;;;;;;;17.16;47.09;100802.91;5075819;28;1000;-61
2023/07/11 00:02:43;;;;;;;;;;;;;;;16.97;46.99;100802.66;5059015;28;1024;-61
2023/07/11 00:05:10;;;;;;;;;;;;;;;16.84;46.63;100797.66;5076204;28;1150;-60
2023/07/11 00:07:36;;;;;;;;;;;;;;;16.81;46.22;100800.97;5075880;28;1201;-62
2023/07/11 00:10:01;;;;;;;;;;;;;;;16.72;46.13;100801.50;5076527;28;1074;-61
2023/07/11 00:12:28;;;;;;;;;;;;;;;16.77;45.68;100808.91;5076214;28;1098;-60
2023/07/11 00:14:55;;;;;;;;;;;;;;;17.37;46.61;100805.63;5076109;28;1126;-62
2023/07/11 00:17:20;;;;;;;;;;;;;;;17.17;47.16;100799.06;5075557;28;2113;-62
2023/07/11 00:19:50;;;;;;;;;;;;;;;16.97;46.92;100788.91;5075715;28;1118;-62
2023/07/11 00:22:16;;;;;;;;;;;;;;;16.86;46.40;100790.00;5076371;28;1026;-62
2023/07/11 00:24:41;;;;;;;;;;;;;;;16.80;46.12;100786.41;5076177;28;1138;-62
2023/07/11 00:27:07;;;;;;;;;;;;;;;16.82;45.78;100795.19;5075778;28;1113;-62
2023/07/11 00:29:33;;;;;;;;;;;;;;;16.76;45.75;100791.63;5075949;28;1182;-63
2023/07/11 00:31:59;;;;;;;;;;;;;;;17.49;46.49;100792.41;5057757;28;1130;-62
2023/07/11 00:34:25;;;;;;;;;;;;;;;17.27;47.26;100784.47;5076040;28;1154;-61
2023/07/11 00:36:50;;;;;;;;;;;;;;;17.04;46.67;100786.72;5076076;28;1070;-62
2023/07/11 00:39:19;;;;;;;;;;;;;;;16.95;46.60;100785.59;5057786;28;1910;-63
2023/07/11 00:41:45;;;;;;;;;;;;;;;16.92;46.04;100784.22;5075827;28;1063;-65
2023/07/11 00:44:13;;;;;;;;;;;;;;;16.84;45.78;100782.00;5057344;28;1085;-65
2023/07/11 00:46:39;;;;;;;;;;;;;;;17.60;46.57;100771.19;5075637;28;1046;-65
2023/07/11 00:49:05;;;;;;;;;;;;;;;17.17;46.84;100763.34;5052155;28;2285;-62
2023/07/11 00:51:32;;;;;;;;;;;;;;;17.01;46.73;100762.53;5042988;28;1028;-61
2023/07/11 00:53:58;;;;;;;;;;;;;;;16.97;46.24;100763.34;5056228;28;1170;-62
2023/07/11 00:56:25;;;;;;;;;;;;;;;16.92;45.76;100767.75;5075336;28;878;-62
2023/07/11 00:58:50;;;;;;;;;;;;;;;16.88;45.54;100769.41;5057726;28;1901;-63
2023/07/11 01:01:16;;;;;;;;;;;;;;;16.81;45.46;100765.28;5057815;28;1124;-62
2023/07/11 01:03:41;;;;;;;;;;;;;;;16.85;44.99;100767.19;5075776;28;1087;-62
2023/07/11 01:06:11;;;;;;;;;;;;;;;16.79;44.90;100768.28;5058124;28;1091;-62
2023/07/11 01:08:36;;;;;;;;;;;;;;;16.79;45.01;100770.19;5056884;28;1102;-62
2023/07/11 01:11:02;;;;;;;;;;;;;;;16.71;44.93;100761.41;5057950;28;1103;-62
2023/07/11 01:13:27;;;;;;;;;;;;;;;16.66;44.87;100758.69;5075047;28;1042;-62
2023/07/11 01:15:53;;;;;;;;;;;;;;;16.66;45.01;100758.69;5074904;28;1027;-63
2023/07/11 01:18:18;;;;;;;;;;;;;;;16.68;44.56;100750.19;5075106;28;2093;-63
2023/07/11 01:20:44;;;;;;;;;;;;;;;17.39;46.21;100752.00;5075885;28;864;-62
2023/07/11 01:23:09;;;;;;;;;;;;;;;16.94;46.38;100775.72;5079217;28;1169;-63
2023/07/11 01:25:35;;;;;;;;;;;;;;;16.92;45.93;100777.94;5061619;28;1107;-63
2023/07/11 01:28:00;;;;;;;;;;;;;;;16.84;45.82;100767.47;5042961;28;1147;-62
2023/07/11 01:30:26;;;;;;;;;;;;;;;16.73;45.71;100759.22;5078954;28;998;-62
2023/07/11 01:32:51;;;;;;;;;;;;;;;16.75;45.33;100757.03;5078654;28;971;-62
2023/07/11 01:35:17;;;;;;;;;;;;;;;16.71;45.20;100758.66;5061273;28;1110;-62
2023/07/11 01:37:42;;;;;;;;;;;;;;;16.77;44.71;100760.34;5078927;28;1979;-62
2023/07/11 01:40:09;;;;;;;;;;;;;;;16.66;44.89;100777.91;5079196;28;1209;-62
2023/07/11 01:42:34;;;;;;;;;;;;;;;16.57;45.04;100754.84;5061093;28;1155;-61
2023/07/11 01:45:00;;;;;;;;;;;;;;;16.62;44.75;100760.34;5060671;28;873;-62
2023/07/11 01:47:25;;;;;;;;;;;;;;;16.58;44.64;100768.28;5078525;28;2335;-63
2023/07/11 01:49:51;;;;;;;;;;;;;;;16.67;44.81;100767.75;5078537;28;1079;-62
2023/07/11 01:52:18;;;;;;;;;;;;;;;16.65;44.78;100762.53;5060587;28;1063;-63
2023/07/11 01:54:44;;;;;;;;;;;;;;;16.57;44.70;100765.81;5078840;28;1106;-61
2023/07/11 01:57:09;;;;;;;;;;;;;;;16.55;44.85;100757.00;5078442;28;1978;-61
2023/07/11 01:59:35;;;;;;;;;;;;;;;16.60;44.54;100754.28;5060713;28;1091;-61
2023/07/11 02:02:00;;;;;;;;;;;;;;;16.50;44.81;100757.03;5060425;28;1121;-61
2023/07/11 02:04:26;;;;;;;;;;;;;;;16.40;44.76;100766.88;5078611;28;1074;-61
2023/07/11 02:06:51;;;;;;;;;;;;;;;17.60;45.46;100762.94;5060238;28;1186;-61
2023/07/11 02:09:17;;;;;;;;;;;;;;;17.00;46.53;100776.53;5078362;28;969;-61
2023/07/11 02:11:43;;;;;;;;;;;;;;;16.77;46.51;100760.34;5078263;28;1082;-61
2023/07/11 02:14:09;;;;;;;;;;;;;;;16.80;45.86;100752.63;5060621;28;1158;-61
2023/07/11 02:16:34;;;;;;;;;;;;;;;17.29;46.90;100768.50;5078701;28;992;-62
2023/07/11 02:19:00;;;;;;;;;;;;;;;16.98;46.91;100763.06;5078073;28;2741;-61
2023/07/11 02:21:25;;;;;;;;;;;;;;;16.90;46.37;100758.13;5077918;28;987;-61
2023/07/11 02:23:51;;;;;;;;;;;;;;;16.84;45.68;100764.72;5078600;28;1011;-60
2023/07/11 02:26:16;;;;;;;;;;;;;;;16.71;45.75;100758.66;5078178;28;1023;-61
2023/07/11 02:28:42;;;;;;;;;;;;;;;16.74;45.26;100771.84;5078415;28;1210;-61
2023/07/11 02:31:07;;;;;;;;;;;;;;;16.99;45.62;100783.97;5078039;28;1109;-61
2023/07/11 02:33:33;;;;;;;;;;;;;;;17.24;46.60;100790.53;5077615;28;983;-60
2023/07/11 02:35:58;;;;;;;;;;;;;;;16.97;46.34;100791.66;5077635;28;1254;-61
2023/07/11 02:38:24;;;;;;;;;;;;;;;16.91;45.78;100784.50;5077876;28;1910;-61
2023/07/11 02:40:49;;;;;;;;;;;;;;;16.73;45.78;100781.19;5077990;28;1079;-61
2023/07/11 02:43:15;;;;;;;;;;;;;;;16.68;45.56;100781.19;5077907;28;1091;-61
2023/07/11 02:45:40;;;;;;;;;;;;;;;16.73;45.32;100788.59;5077133;28;993;-61
2023/07/11 02:48:06;;;;;;;;;;;;;;;16.67;45.06;100787.78;5077052;28;2108;-63
2023/07/11 02:50:31;;;;;;;;;;;;;;;16.75;44.69;100789.16;5073386;28;1082;-63
2023/07/11 02:52:57;;;;;;;;;;;;;;;16.68;44.90;100785.88;5068509;28;1154;-61
2023/07/11 02:55:22;;;;;;;;;;;;;;;16.59;44.80;100791.91;5073649;28;1011;-61
2023/07/11 02:57:48;;;;;;;;;;;;;;;16.64;44.58;100795.75;5076233;28;1914;-62
2023/07/11 03:00:13;;;;;;;;;;;;;;;16.54;44.71;100791.06;5075856;28;1209;-63
2023/07/11 03:02:39;;;;;;;;;;;;;;;16.52;44.96;100785.00;5065357;28;1015;-60
2023/07/11 03:05:04;;;;;;;;;;;;;;;16.56;44.54;100788.88;5077568;28;999;-61
2023/07/11 03:07:30;;;;;;;;;;;;;;;16.53;44.85;100792.97;5077386;28;991;-59
2023/07/11 03:09:55;;;;;;;;;;;;;;;16.73;45.13;100786.69;5077527;28;951;-57
2023/07/11 03:12:21;;;;;;;;;;;;;;;17.26;46.41;100791.06;5076942;28;1120;-57
2023/07/11 03:14:50;;;;;;;;;;;;;;;16.87;46.49;100791.63;5077196;28;1043;-57
2023/07/11 03:17:15;;;;;;;;;;;;;;;16.76;45.93;100802.63;5076803;28;2262;-57
2023/07/11 03:19:41;;;;;;;;;;;;;;;16.69;45.92;100802.06;5077163;28;1062;-57
2023/07/11 03:22:06;;;;;;;;;;;;;;;16.75;45.49;100800.16;5076661;28;1047;-58
2023/07/11 03:24:32;;;;;;;;;;;;;;;16.63;45.29;100802.31;5077192;28;1174;-58
2023/07/11 03:26:57;;;;;;;;;;;;;;;16.64;45.34;100798.50;5076611;28;1091;-57
2023/07/11 03:29:22;;;;;;;;;;;;;;;16.60;45.24;100806.44;5059060;28;1058;-60
2023/07/11 03:31:48;;;;;;;;;;;;;;;16.57;45.21;100809.75;5076960;28;1110;-60
2023/07/11 03:34:13;;;;;;;;;;;;;;;16.51;44.98;100822.63;5076665;28;933;-59
2023/07/11 03:36:40;;;;;;;;;;;;;;;16.54;44.96;100811.09;5076985;28;1026;-60
2023/07/11 03:39:05;;;;;;;;;;;;;;;16.55;44.82;100809.16;5076383;28;1914;-58
2023/07/11 03:41:31;;;;;;;;;;;;;;;17.16;46.35;100810.31;5059115;28;1151;-59
2023/07/11 03:43:56;;;;;;;;;;;;;;;16.95;47.10;100807.59;5075269;28;1466;-63
2023/07/11 03:46:22;;;;;;;;;;;;;;;16.84;46.89;100805.91;5076334;28;1131;-57
2023/07/11 03:48:47;;;;;;;;;;;;;;;16.64;46.50;100810.28;5076077;28;2243;-52
2023/07/11 03:51:13;;;;;;;;;;;;;;;16.67;46.18;100815.22;5076120;28;1360;-55
2023/07/11 03:53:38;;;;;;;;;;;;;;;16.64;45.96;100810.28;5076063;28;1417;-53
2023/07/11 03:56:05;;;;;;;;;;;;;;;17.35;46.26;100811.38;5076025;28;1027;-49
2023/07/11 03:58:30;;;;;;;;;;;;;;;17.13;47.25;100805.38;5076896;28;1909;-52
2023/07/11 04:00:55;;;;;;;;;;;;;;;16.90;46.99;100807.56;5076432;28;1063;-52
2023/07/11 04:03:21;;;;;;;;;;;;;;;17.01;47.06;100812.00;5076172;28;1122;-54
2023/07/11 04:05:48;;;;;;;;;;;;;;;16.82;46.92;100821.84;5076480;28;1039;-50
2023/07/11 04:08:13;;;;;;;;;;;;;;;16.84;46.25;100819.63;5075554;28;1022;-52
2023/07/11 04:10:39;;;;;;;;;;;;;;;16.72;46.14;100828.16;5076192;28;1105;-53
2023/07/11 04:13:04;;;;;;;;;;;;;;;16.72;45.62;100828.97;5076117;28;1129;-51
2023/07/11 04:15:30;;;;;;;;;;;;;;;16.71;45.71;100838.28;5076763;28;1157;-54
2023/07/11 04:17:55;;;;;;;;;;;;;;;16.66;45.66;100840.22;5075780;28;2504;-54
2023/07/11 04:20:21;;;;;;;;;;;;;;;16.67;45.32;100842.69;5075968;28;1197;-58
2023/07/11 04:22:46;;;;;;;;;;;;;;;16.69;45.44;100832.28;5076244;28;1049;-57
2023/07/11 04:25:11;;;;;;;;;;;;;;;16.74;45.22;100835.00;5075798;28;1213;-55
2023/07/11 04:27:37;;;;;;;;;;;;;;;17.61;46.28;100836.91;5076193;28;1162;-56
2023/07/11 04:30:03;;;;;;;;;;;;;;;17.06;47.30;100836.69;5075665;28;1015;-54
2023/07/11 04:32:28;;;;;;;;;;;;;;;16.89;46.83;100841.66;5062732;28;1099;-50
2023/07/11 04:34:54;;;;;;;;;;;;;;;16.88;46.38;100848.22;5075681;28;1050;-54
2023/07/11 04:37:19;;;;;;;;;;;;;;;16.79;46.06;100850.69;5075816;28;1905;-53
2023/07/11 04:39:45;;;;;;;;;;;;;;;16.77;46.07;100847.38;5076138;28;1114;-55
2023/07/11 04:42:10;;;;;;;;;;;;;;;16.73;45.70;100855.34;5076131;28;1135;-53
2023/07/11 04:44:36;;;;;;;;;;;;;;;16.72;45.75;100852.88;5075641;28;1137;-51
2023/07/11 04:47:01;;;;;;;;;;;;;;;16.75;45.32;100844.91;5075130;28;2412;-55
2023/07/11 04:49:27;;;;;;;;;;;;;;;16.68;45.72;100849.84;5075226;28;1027;-54
2023/07/11 04:51:52;;;;;;;;;;;;;;;17.62;44.81;100841.28;5075864;28;1171;-55
2023/07/11 04:54:18;;;;;;;;;;;;;;;17.66;45.17;100835.25;5075515;28;1130;-55
2023/07/11 04:56:43;;;;;;;;;;;;;;;17.35;46.07;100836.13;5059209;28;1027;-58
2023/07/11 04:59:09;;;;;;;;;;;;;;;17.21;46.90;100841.38;5079899;28;1902;-57
2023/07/11 05:01:34;;;;;;;;;;;;;;;17.10;47.48;100842.47;5079390;28;995;-58
2023/07/11 05:04:00;;;;;;;;;;;;;;;17.03;47.93;100839.19;5079479;28;1074;-57
2023/07/11 05:06:26;;;;;;;;;;;;;;;16.97;48.41;100846.59;5079790;28;1111;-58
2023/07/11 05:08:51;;;;;;;;;;;;;;;16.88;48.84;100848.22;5079107;28;1078;-58
2023/07/11 05:11:18;;;;;;;;;;;;;;;16.86;49.03;100844.91;5079543;28;1009;-58
2023/07/11 05:13:44;;;;;;;;;;;;;;;16.76;49.58;100846.56;5079935;28;1035;-58
2023/07/11 05:16:16;;;;;;;;;;;;;;;16.77;49.44;100848.22;5061659;28;1128;-59
2023/07/11 05:18:42;;;;;;;;;;;;;;;16.70;50.03;100853.13;5078838;28;2685;-58
2023/07/11 05:21:08;;;;;;;;;;;;;;;16.69;50.15;100846.00;5079206;28;1143;-58
2023/07/11 05:23:34;;;;;;;;;;;;;;;16.68;50.40;100846.28;5079434;28;1019;-58
2023/07/11 05:29:35;;;;;;;;;;;;;;;17.10;53.29;100854.28;5077582;28;1947;-57
2023/07/11 05:32:01;;;;;;;;;;;;;;;17.49;52.97;100852.88;5080868;28;2285;-56
2023/07/11 05:34:26;;;;;;;;;;;;;;;17.18;51.71;100852.91;5084712;28;1082;-52
2023/07/11 05:36:52;;;;;;;;;;;;;;;17.07;50.57;100851.28;5079222;28;1066;-52
2023/07/11 05:39:18;;;;;;;;;;;;;;;16.95;49.63;100854.28;5079378;28;1975;-58
2023/07/11 05:41:47;;;;;;;;;;;;;;;16.91;49.01;100854.03;5079043;28;1134;-59
2023/07/11 05:44:12;;;;;;;;;;;;;;;16.81;48.51;100853.97;5079131;28;1096;-57
2023/07/11 05:46:38;;;;;;;;;;;;;;;16.83;48.28;100850.94;5078994;28;987;-56
2023/07/11 05:49:04;;;;;;;;;;;;;;;16.80;47.89;100846.81;5077477;28;1054;-58
2023/07/11 05:51:30;;;;;;;;;;;;;;;16.77;47.57;100848.22;5078227;28;1038;-56
2023/07/11 05:53:55;;;;;;;;;;;;;;;16.76;47.37;100846.56;5078420;28;1158;-57
2023/07/11 05:56:21;;;;;;;;;;;;;;;16.82;47.01;100849.31;5077430;28;1113;-58
2023/07/11 05:58:46;;;;;;;;;;;;;;;16.72;47.01;100844.63;5077163;28;1909;-56
2023/07/11 06:01:16;;;;;;;;;;;;;;;16.68;47.06;100844.34;5077978;28;1158;-57
2023/07/11 06:03:45;;;;;;;;;;;;;;;16.73;46.76;100838.88;5077396;28;1094;-58
2023/07/11 06:06:10;;;;;;;;;;;;;;;16.74;46.72;100840.50;5076357;28;1190;-59
2023/07/11 06:08:36;;;;;;;;;;;;;;;16.73;46.58;100841.63;5056721;28;2485;-57
2023/07/11 06:11:02;;;;;;;;;;;;;;;16.75;46.26;100842.16;5072720;28;2054;-53
2023/07/11 06:13:27;;;;;;;;;;;;;;;16.70;46.36;100847.63;5076758;28;2171;-56
2023/07/11 06:15:59;;;;;;;;;;;;;;;16.73;46.40;100847.09;5077209;28;1970;-58
2023/07/11 06:18:25;;;;;;;;;;;;;;;16.71;46.39;100851.22;5074534;28;1979;-56
2023/07/11 06:20:50;;;;;;;;;;;;;;;16.72;46.39;100847.38;5074799;28;1060;-55
2023/07/11 06:23:15;;;;;;;;;;;;;;;16.74;46.36;100843.25;5076978;28;965;-57
2023/07/11 06:25:41;;;;;;;;;;;;;;;16.68;46.35;100849.03;5077160;28;1127;-58
2023/07/11 06:28:06;;;;;;;;;;;;;;;16.66;46.42;100842.97;5077080;28;1083;-58
2023/07/11 06:30:32;;;;;;;;;;;;;;;16.71;46.20;100842.97;5076223;28;1221;-58
2023/07/11 06:32:58;;;;;;;;;;;;;;;16.51;46.75;100838.25;5076626;28;1015;-58
2023/07/11 06:35:23;;;;;;;;;;;;;;;16.64;46.47;100839.69;5076311;28;1073;-58
2023/07/11 06:37:49;;;;;;;;;;;;;;;16.66;46.34;100838.31;5076682;28;1968;-58
2023/07/11 06:40:15;;;;;;;;;;;;;;;16.68;46.31;100843.53;5076863;28;1082;-58
2023/07/11 06:42:40;;;;;;;;;;;;;;;16.57;46.61;100835.25;5076932;28;987;-56
2023/07/11 06:45:06;;;;;;;;;;;;;;;16.58;46.39;100833.34;5076407;28;1841;-56
2023/07/11 06:47:33;;;;;;;;;;;;;;;16.74;46.03;100842.44;5066929;28;897;-56
2023/07/11 06:49:58;;;;;;;;;;;;;;;16.63;46.38;100838.84;5033494;28;1252351;-57
2023/07/11 06:52:24;;;;;;;;;;;;;;;16.74;46.38;100829.50;5077383;28;1044;-57
2023/07/11 06:54:49;;;;;;;;;;;;;;;16.63;46.40;100833.34;5077150;28;1034;-57
2023/07/11 06:57:15;;;;;;;;;;;;;;;16.77;45.89;100828.97;5077225;28;1968;-59
2023/07/11 06:59:41;;;;;;;;;;;;;;;16.72;46.19;100822.66;5077321;28;1043;-58
2023/07/11 07:02:07;;;;;;;;;;;;;;;16.60;46.43;100831.16;5077294;28;1114;-58
2023/07/11 07:04:32;;;;;;;;;;;;;;;16.65;46.52;100828.41;5077335;28;1107;-57
2023/07/11 07:06:58;;;;;;;;;;;;;;;16.65;46.18;100831.16;5077191;28;1201;-57
2023/07/11 07:09:23;;;;;;;;;;;;;;;16.68;46.27;100827.88;5077181;28;1024;-57
2023/07/11 07:11:49;;;;;;;;;;;;;;;16.65;46.51;100830.31;5076682;28;940;-55
2023/07/11 07:14:14;;;;;;;;;;;;;;;16.60;46.52;100820.16;5077115;28;1051;-57
2023/07/11 07:16:40;;;;;;;;;;;;;;;16.69;46.22;100829.53;5076315;28;1818;-58
2023/07/11 07:19:06;;;;;;;;;;;;;;;16.68;46.47;100821.56;5076060;28;1917;-58
2023/07/11 07:21:31;;;;;;;;;;;;;;;16.69;46.27;100821.28;5076292;28;1034;-58
2023/07/11 07:23:57;;;;;;;;;;;;;;;16.66;46.36;100810.84;5076636;28;1026;-58
2023/07/11 07:26:22;;;;;;;;;;;;;;;17.41;46.84;100818.50;5076236;28;1151;-56
2023/07/11 07:28:48;;;;;;;;;;;;;;;17.18;47.64;100813.59;5076910;28;1090;-56
2023/07/11 07:31:13;;;;;;;;;;;;;;;16.97;47.62;100816.38;5076092;28;1063;-56
2023/07/11 07:33:40;;;;;;;;;;;;;;;17.01;47.13;100817.50;5076211;28;1093;-55
2023/07/11 07:36:07;;;;;;;;;;;;;;;16.89;46.91;100814.19;5075804;28;1002;-58
2023/07/11 07:38:32;;;;;;;;;;;;;;;16.84;47.00;100814.16;5076247;28;1901;-56
2023/07/11 07:40:59;;;;;;;;;;;;;;;16.93;46.50;100807.84;5076370;28;1111;-58
2023/07/11 07:43:24;;;;;;;;;;;;;;;16.91;46.68;100811.97;5076568;28;1059;-58
2023/07/11 07:45:50;;;;;;;;;;;;;;;16.84;46.79;100808.66;5075827;28;2304;-58
2023/07/11 07:48:17;;;;;;;;;;;;;;;16.86;46.65;100815.53;5076089;28;1036;-57
2023/07/11 07:50:43;;;;;;;;;;;;;;;16.80;46.48;100797.38;5075879;28;1125;-58
2023/07/11 07:53:08;;;;;;;;;;;;;;;16.75;46.82;100819.38;5076479;28;1178;-55
2023/07/11 07:55:34;;;;;;;;;;;;;;;16.85;46.53;100807.56;5076344;28;1004;-55
2023/07/11 07:58:00;;;;;;;;;;;;;;;16.83;46.39;100812.50;5076308;28;1905;-59
2023/07/11 08:00:25;;;;;;;;;;;;;;;16.85;46.66;100807.56;5075935;28;1059;-58
2023/07/11 08:02:53;;;;;;;;;;;;;;;16.85;46.59;100799.31;5075369;28;1166;-54
2023/07/11 08:05:19;;;;;;;;;;;;;;;16.89;46.39;100805.94;5075860;28;1007;-59
2023/07/11 08:07:45;;;;;;;;;;;;;;;16.90;46.52;100805.66;5076105;28;1123;-58
2023/07/11 08:10:10;;;;;;;;;;;;;;;16.90;46.29;100810.31;5075061;28;1004;-57
2023/07/11 08:12:36;;;;;;;;;;;;;;;16.85;46.50;100796.56;5075888;28;1178;-54
2023/07/11 08:15:03;;;;;;;;;;;;;;;16.84;46.50;100798.47;5075719;28;2342;-55
2023/07/11 08:17:29;;;;;;;;;;;;;;;16.90;46.26;100802.06;5075532;28;1927;-57
2023/07/11 08:19:54;;;;;;;;;;;;;;;16.89;46.34;100812.25;5075829;28;1119;-57
2023/07/11 08:22:20;;;;;;;;;;;;;;;16.94;46.33;100803.19;5075603;28;1020;-56
2023/07/11 08:24:45;;;;;;;;;;;;;;;16.89;46.71;100797.72;5075755;28;1126;-55
2023/07/11 08:27:10;;;;;;;;;;;;;;;16.90;46.58;100802.06;5075816;28;1114;-53
2023/07/11 08:29:37;;;;;;;;;;;;;;;16.87;46.64;100797.13;5075777;28;986;-55
2023/07/11 08:32:03;;;;;;;;;;;;;;;16.86;46.70;100795.50;5075962;28;1114;-54
2023/07/11 08:34:29;;;;;;;;;;;;;;;16.87;46.58;100797.13;5075008;28;1028;-58
2023/07/11 08:36:54;;;;;;;;;;;;;;;16.85;46.72;100799.31;5075595;28;1118;-56
2023/07/11 08:39:20;;;;;;;;;;;;;;;16.88;46.79;100810.59;5075168;28;1902;-58
2023/07/11 08:41:47;;;;;;;;;;;;;;;16.97;46.59;100797.16;5057746;28;1095;-54
2023/07/11 08:44:18;;;;;;;;;;;;;;;17.00;46.55;100785.63;5057136;28;1032;-56
2023/07/11 08:46:52;;;;;;;;;;;;;;;16.87;46.45;100791.63;5075092;28;2490;-55
2023/07/11 08:49:23;;;;;;;;;;;;;;;16.88;46.38;100782.28;5075754;28;1575;-55
2023/07/11 08:51:50;;;;;;;;;;;;;;;16.94;46.52;100786.69;5074848;28;1066;-57
2023/07/11 08:54:16;;;;;;;;;;;;;;;16.89;46.54;100793.03;5057796;28;1088;-58
2023/07/11 08:56:45;;;;;;;;;;;;;;;16.88;46.83;100787.78;5074882;28;1026;-54
2023/07/11 08:59:19;;;;;;;;;;;;;;;16.88;46.69;100782.28;5074971;28;1988;-50
2023/07/11 09:01:47;;;;;;;;;;;;;;;16.98;46.47;100784.25;5075460;28;1047;-57
2023/07/11 09:04:14;;;;;;;;;;;;;;;17.00;46.48;100777.38;5075199;28;1027;-57
2023/07/11 09:06:43;;;;;;;;;;;;;;;17.01;46.54;100778.19;5074818;28;1039;-58
2023/07/11 09:09:09;;;;;;;;;;;;;;;16.97;46.38;100780.69;5057186;28;1059;-57
2023/07/11 09:11:39;;;;;;;;;;;;;;;16.99;46.65;100772.16;5057388;28;1031;-56
2023/07/11 09:14:08;;;;;;;;;;;;;;;16.97;46.58;100780.69;5057479;28;1209;-58
2023/07/11 09:16:35;;;;;;;;;;;;;;;16.95;46.58;100769.13;5074756;28;2437;-57
2023/07/11 09:19:13;;;;;;;;;;;;;;;16.99;46.63;100761.16;5075126;28;1913;-57
2023/07/11 09:21:57;;;;;;;;;;;;;;;17.00;46.50;100755.41;5074872;28;1146;-54
2023/07/11 09:24:37;;;;;;;;;;;;;;;17.09;46.45;100761.97;5074858;28;974;-57
2023/07/11 09:27:18;;;;;;;;;;;;;;;17.03;46.63;100762.25;5074963;28;1046;-57
2023/07/11 09:29:44;;;;;;;;;;;;;;;16.93;46.84;100752.13;5075247;28;1024;-55
2023/07/11 09:32:09;;;;;;;;;;;;;;;16.98;46.60;100752.09;5057402;28;1063;-57
2023/07/11 09:34:36;;;;;;;;;;;;;;;17.01;46.64;100762.53;5057071;28;1100;-56
2023/07/11 09:37:09;;;;;;;;;;;;;;;16.96;46.95;100765.28;5074735;28;923;-56
2023/07/11 09:39:37;;;;;;;;;;;;;;;17.02;46.69;100758.69;5056952;28;1984;-54
2023/07/11 09:42:04;;;;;;;;;;;;;;;17.05;46.80;100749.88;5075866;28;1110;-58
2023/07/11 09:44:30;;;;;;;;;;;;;;;17.03;46.49;100751.28;5078215;28;1026;-60
2023/07/11 09:46:55;;;;;;;;;;;;;;;16.99;46.72;100756.50;5078651;28;2693;-59
2023/07/11 09:49:31;;;;;;;;;;;;;;;17.13;46.52;100745.75;5078331;28;1196;-58
2023/07/11 09:51:58;;;;;;;;;;;;;;;17.03;46.77;100745.78;5078437;28;1023;-58
2023/07/11 09:54:27;;;;;;;;;;;;;;;16.98;46.80;100743.84;5060492;28;1119;-59
2023/07/11 09:56:55;;;;;;;;;;;;;;;17.00;46.58;100738.91;5078558;28;1106;-59
2023/07/11 09:59:21;;;;;;;;;;;;;;;17.02;46.50;100742.19;5060433;28;1913;-60
2023/07/11 10:01:50;;;;;;;;;;;;;;;17.04;46.56;100737.25;5060723;28;1170;-59
2023/07/11 10:04:17;;;;;;;;;;;;;;;17.09;46.58;100737.22;5078251;28;1118;-59
2023/07/11 10:06:44;;;;;;;;;;;;;;;17.06;46.67;100739.72;5077838;28;1039;-59
2023/07/11 10:09:29;;;;;;;;;;;;;;;17.00;46.69;100743.56;5077998;28;1014;-60
2023/07/11 10:11:58;;;;;;;;;;;;;;;17.12;46.40;100737.78;5078445;28;1134;-60
2023/07/11 10:14:34;;;;;;;;;;;;;;;17.07;46.53;100738.63;5078577;28;1209;-59
2023/07/11 10:17:01;;;;;;;;;;;;;;;17.10;46.67;100736.13;5077842;28;2379;-58
2023/07/11 10:19:27;;;;;;;;;;;;;;;17.05;46.64;100727.91;5078417;28;1906;-59
2023/07/11 10:21:56;;;;;;;;;;;;;;;17.07;46.57;100739.44;5077948;28;1170;-59
2023/07/11 10:24:22;;;;;;;;;;;;;;;17.05;46.68;100727.91;5059691;28;1063;-59
2023/07/11 10:26:48;;;;;;;;;;;;;;;17.08;46.78;100727.38;5077743;28;1125;-60
2023/07/11 10:29:17;;;;;;;;;;;;;;;17.20;46.30;100718.81;5077749;28;1120;-59
2023/07/11 10:31:48;;;;;;;;;;;;;;;17.14;46.84;100725.44;5077890;28;1071;-59
2023/07/11 10:34:22;;;;;;;;;;;;;;;17.14;46.85;100732.81;5060220;28;1126;-58
2023/07/11 10:36:51;;;;;;;;;;;;;;;17.06;46.76;100728.75;5059672;28;1091;-59
2023/07/11 10:39:49;;;;;;;;;;;;;;;17.07;46.69;100714.72;5059775;28;1913;-61
2023/07/11 10:42:15;;;;;;;;;;;;;;;17.21;46.58;100719.66;5013209;28;1435;-59
2023/07/11 10:44:43;;;;;;;;;;;;;;;17.19;46.68;100716.34;5075245;28;1003;-61
2023/07/11 10:47:09;;;;;;;;;;;;;;;17.17;46.45;100718.56;5059664;28;2587;-61
2023/07/11 10:49:47;;;;;;;;;;;;;;;17.17;46.54;100724.06;5077141;28;984;-61
2023/07/11 10:52:23;;;;;;;;;;;;;;;17.13;46.44;100706.47;5058985;28;1020;-64
2023/07/11 10:55:07;;;;;;;;;;;;;;;17.20;46.66;100712.50;5075746;28;1018;-59
2023/07/11 10:57:43;;;;;;;;;;;;;;;17.15;46.51;100715.25;5077063;28;1937;-58
2023/07/11 11:00:18;;;;;;;;;;;;;;;17.14;46.77;100705.34;5076285;28;1205;-58
2023/07/11 11:02:59;;;;;;;;;;;;;;;17.13;46.49;100706.47;5064313;28;1012;-58
2023/07/11 11:05:37;;;;;;;;;;;;;;;17.16;46.62;100698.47;5076670;28;1011;-57
2023/07/11 11:08:08;;;;;;;;;;;;;;;17.11;46.99;100695.75;5077170;28;1193;-58
2023/07/11 11:11:06;;;;;;;;;;;;;;;17.13;46.67;100700.97;5058823;28;1174;-58
2023/07/11 11:13:35;;;;;;;;;;;;;;;17.22;46.66;100707.53;5014860;28;1480;-58
2023/07/11 11:16:08;;;;;;;;;;;;;;;17.20;46.43;100702.31;5058859;28;1789;-61
2023/07/11 11:18:34;;;;;;;;;;;;;;;17.17;46.63;100688.34;5076847;28;1981;-59
2023/07/11 11:20:59;;;;;;;;;;;;;;;17.19;46.41;100683.38;5076615;28;1115;-60
2023/07/11 11:23:43;;;;;;;;;;;;;;;17.26;46.42;100683.88;5076808;28;1082;-60
2023/07/11 11:26:15;;;;;;;;;;;;;;;17.17;46.77;100682.84;5069240;28;1023;-60
2023/07/11 11:29:03;;;;;;;;;;;;;;;17.19;46.45;100688.84;5075889;28;973;-61
2023/07/11 11:31:29;;;;;;;;;;;;;;;17.15;46.67;100699.56;5058893;28;1425;-62
2023/07/11 11:34:00;;;;;;;;;;;;;;;17.18;46.72;100692.69;5077100;28;1101;-62
2023/07/11 11:36:28;;;;;;;;;;;;;;;17.17;46.42;100686.41;5075753;28;1054;-59
2023/07/11 11:39:03;;;;;;;;;;;;;;;17.21;46.42;100682.00;5076392;28;1897;-61
2023/07/11 11:41:32;;;;;;;;;;;;;;;17.15;46.71;100685.03;5076450;28;1194;-60
2023/07/11 11:43:58;;;;;;;;;;;;;;;17.21;46.73;100694.91;5058490;28;1103;-59
2023/07/11 11:46:23;;;;;;;;;;;;;;;17.32;46.17;100695.69;5075982;28;2227;-60
2023/07/11 11:48:49;;;;;;;;;;;;;;;17.17;46.65;100694.63;5057850;28;1233;-59
2023/07/11 11:51:15;;;;;;;;;;;;;;;17.17;46.81;100696.56;5057780;28;1108;-60
2023/07/11 11:53:46;;;;;;;;;;;;;;;17.20;46.61;100701.50;5058457;28;1071;-60
2023/07/11 11:56:13;;;;;;;;;;;;;;;17.25;46.40;100699.56;5075731;28;1067;-57
2023/07/11 11:58:45;;;;;;;;;;;;;;;17.21;46.78;100682.00;5058262;28;1905;-59
2023/07/11 12:01:29;;;;;;;;;;;;;;;17.24;46.70;100692.41;5050174;28;884;-60
2023/07/11 12:03:54;;;;;;;;;;;;;;;17.27;46.36;100680.03;5058286;28;1048;-56
2023/07/11 12:06:26;;;;;;;;;;;;;;;17.24;46.78;100675.13;5075507;28;1040;-58
2023/07/11 12:09:10;;;;;;;;;;;;;;;17.21;46.72;100692.97;5075777;28;1233;-58
2023/07/11 12:11:43;;;;;;;;;;;;;;;17.26;46.56;100692.13;5075801;28;1131;-58
2023/07/11 12:14:10;;;;;;;;;;;;;;;17.28;46.39;100682.50;5075789;28;897;-58
2023/07/11 12:16:35;;;;;;;;;;;;;;;17.28;46.53;100681.69;5057811;28;2624;-60
2023/07/11 12:19:01;;;;;;;;;;;;;;;17.24;46.49;100664.13;5075510;28;1897;-58
2023/07/11 12:21:31;;;;;;;;;;;;;;;17.56;45.75;100665.63;5075605;28;1015;-59
2023/07/11 12:24:15;;;;;;;;;;;;;;;16.77;49.24;100683.44;5075720;28;1027;-60
2023/07/11 12:26:41;;;;;;;;;;;;;;;17.52;49.65;100670.84;5075664;28;1260;-58
2023/07/11 12:29:25;;;;;;;;;;;;;;;17.37;49.26;100668.19;5075340;28;1093;-59
2023/07/11 12:32:10;;;;;;;;;;;;;;;17.37;48.49;100663.50;5075522;28;1151;-59
2023/07/11 12:34:36;;;;;;;;;;;;;;;17.26;48.33;100656.41;5075327;28;1560;-59
2023/07/11 12:37:02;;;;;;;;;;;;;;;17.33;47.87;100654.16;5075141;28;862;-60
2023/07/11 12:39:30;;;;;;;;;;;;;;;17.26;47.49;100664.66;5057694;28;1993;-59
2023/07/11 12:41:56;;;;;;;;;;;;;;;17.27;46.98;100655.31;5075710;28;1178;-59
2023/07/11 12:44:21;;;;;;;;;;;;;;;17.22;47.02;100663.56;5075701;28;1048;-58
2023/07/11 12:46:48;;;;;;;;;;;;;;;17.20;47.06;100665.78;5057373;28;2623;-57
2023/07/11 12:49:24;;;;;;;;;;;;;;;17.22;47.01;100653.41;5074582;28;1100;-58
2023/07/11 12:55:25;;;;;;;;;;;;;;;19.15;44.19;100661.59;5068020;28;2213;-57